Flight Track Log - Related Links

Times and Time Zones

All times are in EDT time to prevent confusion due to time zone crossing. See the GJS3710 flight status page for this flight to view local times or setup timezone preferences in your user account.

Time Position Orientation Groundspeed Altitude Reporting Facility
EDT Latitude Longitude Course Direction KTS MPH feet Rate Location/Type
Sun 07:37:18 PM 38.7333 -90.3000 356° North 161 185 2,100  Level Gateway (St. Louis) TRACON
Sun 07:38:18 PM 38.7500 -90.2333 72° East 245 282 4,100 1,884 Climbing Gateway (St. Louis) TRACON
Sun 07:39:19 PM 38.8203 -90.2206 North 273 314 5,900 2,098 Climbing Kansas City Center
Sun 07:40:00 PM 38.9761 -90.2000 North  Level FlightAware Approximate
Sun 07:40:21 PM 38.9050 -90.2244 358° North 299 344 8,400  Level Kansas City Center
Sun 07:41:00 PM 39.0702 -90.2053 356° North  Level FlightAware Approximate
Sun 07:41:22 PM 38.9936 -90.2233 North 314 361 11,300  Level Kansas City Center
Sun 07:42:00 PM 39.1587 -90.2142 356° North  Level FlightAware Approximate
Sun 07:42:23 PM 39.1003 -90.2231 360° North 321 369 13,600  Level Kansas City Center
Sun 07:43:25 PM 39.2003 -90.2211 North 351 404 15,300 1,659 Climbing Kansas City Center
Sun 07:44:26 PM 39.3083 -90.2197 North 378 435 17,000 1,854 Climbing Kansas City Center
Sun 07:45:28 PM 39.4206 -90.2119 North 400 460 19,100 1,805 Climbing Kansas City Center
Sun 07:46:29 PM 39.5333 -90.1844 11° North 412 474 20,700 927 Climbing Kansas City Center
Sun 07:47:31 PM 39.6558 -90.1561 10° North 443 510 21,000 146 Climbing Kansas City Center
Sun 07:48:32 PM 39.7928 -90.1261 10° North 467 537 21,000  Level Kansas City Center
Sun 07:49:24 PM 39.8964 -90.1011 10° North 475 547 21,000  Level Chicago Center
Sun 07:50:26 PM 40.0256 -90.0711 10° North 473 544 21,000  Level Chicago Center
Sun 07:51:27 PM 40.1514 -90.0258 15° North 469 540 21,000  Level Chicago Center
Sun 07:52:29 PM 40.2994 -89.9628 18° North 467 537 21,000  Level Chicago Center
Sun 07:53:30 PM 40.4228 -89.9092 18° North 467 537 21,000  Level Chicago Center
Sun 07:54:32 PM 40.5364 -89.8603 18° North 466 536 21,000  Level Chicago Center
Sun 07:55:33 PM 40.6586 -89.8044 19° North 465 535 21,000  Level Chicago Center
Sun 07:56:35 PM 40.8058 -89.7378 19° North 469 540 21,000  Level Chicago Center
Sun 07:57:36 PM 40.8906 -89.6100 49° Northeast 466 536 21,000  Level Chicago Center
Sun 07:58:38 PM 40.9789 -89.4772 49° Northeast 473 544 21,000  Level Chicago Center
Sun 07:59:40 PM 41.0619 -89.3450 50° Northeast 466 536 21,000 -293 Level Chicago Center
Sun 08:00:41 PM 41.1447 -89.2136 50° Northeast 465 535 20,400 -1,171 Descending Chicago Center
Sun 08:01:43 PM 41.2239 -89.0856 51° Northeast 464 534 18,600 -1,854 Descending Chicago Center
Sun 08:02:44 PM 41.3014 -88.9586 51° Northeast 445 512 16,600 -1,854 Descending Chicago Center
Sun 08:03:46 PM 41.3903 -88.8153 50° Northeast 419 482 14,800 -1,659 Descending Chicago Center
Sun 08:04:47 PM 41.4642 -88.6969 50° Northeast 414 476 13,200 -1,610 Descending Chicago Center
Sun 08:05:49 PM 41.5372 -88.5775 51° Northeast 415 478 11,500 -1,073 Descending Chicago Center
Sun 08:06:50 PM 41.6006 -88.4761 50° Northeast 347 399 11,000 -1,024 Descending Chicago Center
Sun 08:07:52 PM 41.6569 -88.3828 51° Northeast 321 369 9,400 -1,512 Descending Chicago Center
Sun 08:08:53 PM 41.7200 -88.3178 38° Northeast 307 353 7,900 -1,171 Descending Chicago Center
Sun 08:09:55 PM 41.7972 -88.3250 356° North 276 318 7,000 -439 Descending Chicago Center
Sun 08:10:56 PM 41.8681 -88.3300 357° North 258 297 7,000 -1,073 Level Chicago Center
Sun 08:11:58 PM 41.9378 -88.3075 13° North 244 281 4,800 -1,463 Descending Chicago Center
Sun 08:12:59 PM 41.9667 -88.2419 59° Northeast 216 249 4,000 -390 Descending Chicago Center
Sun 08:14:01 PM 41.9678 -88.1758 89° East 198 228 4,000 -390 Level Chicago Center
Sun 08:15:02 PM 41.9675 -88.1125 90° East 179 206 3,200 -821 Descending Chicago Center
Sun 08:15:36 PM 41.9667 -88.0667 91° East 162 186 2,700 -882 Descending Chicago TRACON

Login

Don't have an account? Register now (free) for customized features, flight alerts, and more!